Main page
METAR-TAF:

METAR-TAF

Airports :

Nassau, The Bahamas

Lynden Pindling International Airport

latitude: 25-03N, longitude: 077-28W, elevation: 3 m

Current weather observation

The report was made 30 minutes ago, at 20:00 UTC
Wind 9 kt from the Northeast
Temperature 29°C
Humidity 58%
Pressure 1022 hPa
Visibility 10 km or more
Few clouds at a height of 2500 ft
Broken clouds at a height of 20000 ft

METAR: MYNN 182000Z 04009KT 9999 FEW025 BKN200 29/20 A3018

Time: 15:30 (20:30 UTC)

Forecast

The report was made 4 hours and 40 minutes ago, at 15:50 UTC
Forecast valid from 18 at 18 UTC to 19 at 18 UTC
Wind 6 kt from the Northeast
Visibility 10 km or more
Few clouds at a height of 3000 ft
Broken clouds at a height of 22000 ft
Probability 30% :
Temporary
from 19 at 02 UTC to 19 at 06 UTC
Visibility: 9000 m
Scattered clouds at a height of 1800 ft
Broken clouds at a height of 20000 ft
rain showers

TAF: MYNN 181550Z 1818/1918 05006KT 9999 FEW030 BKN220 PROB30 TEMPO 1902/1906 9000 SHRA SCT018 BKN200

Weather observations and forecasts of more than 4000 airports (METAR and TAF reports).

The available stations are represented by yellow and red dots on the map.

Hover mouse over dot to see the name of the station.

Then click to see weather observations and forecasts.

To change the map : click on the green buttons with a black cross to zoom in, on the green button with a dash to zoom out, or on the green arrows for adjacent maps.


METAR-TAF: